createdAt,value
2019-01-24T00:00:45.596Z,17.9
2019-01-24T00:01:35.660Z,17.9
2019-01-24T00:02:26.314Z,17.9
2019-01-24T00:03:15.777Z,17.8
2019-01-24T00:04:05.359Z,17.8
2019-01-24T00:04:55.962Z,17.8
2019-01-24T00:05:45.966Z,17.8
2019-01-24T00:06:36.272Z,17.7
2019-01-24T00:07:26.075Z,17.6
2019-01-24T00:08:16.391Z,17.6
2019-01-24T00:09:05.944Z,17.6
2019-01-24T00:09:56.529Z,17.6
2019-01-24T00:10:46.008Z,17.7
2019-01-24T00:11:35.661Z,17.8
2019-01-24T00:12:26.691Z,17.8
2019-01-24T00:13:16.793Z,17.8
2019-01-24T00:14:06.529Z,17.8
2019-01-24T00:14:56.583Z,17.8
2019-01-24T00:15:46.937Z,17.8
2019-01-24T00:16:36.176Z,17.8
2019-01-24T00:17:27.031Z,17.9
2019-01-24T00:18:17.638Z,17.9
2019-01-24T00:19:06.916Z,18
2019-01-24T00:19:57.509Z,18
2019-01-24T00:20:46.491Z,18
2019-01-24T00:21:36.495Z,17.9
2019-01-24T00:22:27.415Z,17.9
2019-01-24T00:23:17.508Z,17.9
2019-01-24T00:24:07.461Z,17.8
2019-01-24T00:24:56.717Z,17.7
2019-01-24T00:25:48.507Z,17.6
2019-01-24T00:26:36.263Z,17.6
2019-01-24T00:27:27.207Z,17.6
2019-01-24T00:28:18.088Z,17.6
2019-01-24T00:29:07.843Z,17.6
2019-01-24T00:29:57.615Z,17.6
2019-01-24T00:30:47.413Z,17.5
2019-01-24T00:31:38.278Z,17.6
2019-01-24T00:32:28.119Z,17.6
2019-01-24T00:33:17.849Z,17.6
2019-01-24T00:34:08.263Z,17.7
2019-01-24T00:34:57.118Z,17.8
2019-01-24T00:35:48.316Z,17.8
2019-01-24T00:36:38.157Z,17.9
2019-01-24T00:37:28.163Z,17.9
2019-01-24T00:38:17.945Z,18
2019-01-24T00:39:08.573Z,18.1
2019-01-24T00:39:58.609Z,18.2
2019-01-24T00:40:48.347Z,18.2
2019-01-24T00:41:38.656Z,18.1
2019-01-24T00:42:28.814Z,18.1
2019-01-24T00:43:19.649Z,18.1
2019-01-24T00:44:08.616Z,18.1
2019-01-24T00:44:59.204Z,18.1
2019-01-24T00:45:48.504Z,18.1
2019-01-24T00:46:38.282Z,18.1
2019-01-24T00:47:28.309Z,18.1
2019-01-24T00:48:18.941Z,18.1
2019-01-24T00:49:08.167Z,18.1
2019-01-24T00:49:59.337Z,18
2019-01-24T00:50:48.851Z,18
2019-01-24T00:51:39.204Z,17.9
2019-01-24T00:52:28.386Z,17.9
2019-01-24T00:53:19.324Z,17.8
2019-01-24T00:54:08.543Z,17.8
2019-01-24T00:54:59.388Z,17.8
2019-01-24T00:55:48.983Z,17.8
2019-01-24T00:56:38.692Z,17.8
2019-01-24T00:57:28.273Z,17.8
2019-01-24T00:58:18.816Z,17.9
2019-01-24T00:59:09.181Z,17.9
2019-01-24T00:59:59.491Z,17.9
2019-01-24T01:00:49.558Z,17.9
2019-01-24T01:01:41.145Z,17.9
2019-01-24T01:02:29.648Z,17.9
2019-01-24T01:03:19.415Z,18
2019-01-24T01:04:09.750Z,18.1
2019-01-24T01:04:59.796Z,18
2019-01-24T01:05:49.863Z,18.1
2019-01-24T01:06:40.199Z,18.1
2019-01-24T01:07:29.710Z,18.1
2019-01-24T01:08:20.846Z,18.1
2019-01-24T01:09:10.593Z,18.1
2019-01-24T01:10:00.215Z,18.1
2019-01-24T01:10:50.140Z,18.1
2019-01-24T01:11:40.553Z,18
2019-01-24T01:12:30.567Z,18
2019-01-24T01:13:20.614Z,18
2019-01-24T01:14:10.927Z,17.9
2019-01-24T01:15:00.675Z,17.9
2019-01-24T01:15:49.774Z,17.9
2019-01-24T01:16:40.655Z,17.9
2019-01-24T01:17:30.414Z,17.8
2019-01-24T01:18:21.252Z,17.8
2019-01-24T01:19:11.329Z,17.8
2019-01-24T01:20:01.777Z,17.7
2019-01-24T01:20:51.379Z,17.7
2019-01-24T01:21:41.452Z,17.7
2019-01-24T01:22:30.938Z,17.7
2019-01-24T01:23:20.469Z,17.7
2019-01-24T01:24:11.412Z,17.8
2019-01-24T01:25:01.436Z,17.7
2019-01-24T01:25:52.019Z,17.8
2019-01-24T01:26:41.284Z,17.8
2019-01-24T01:27:32.089Z,17.9
2019-01-24T01:28:20.319Z,17.9
2019-01-24T01:29:11.951Z,18
2019-01-24T01:30:02.232Z,18
2019-01-24T01:30:51.787Z,18.1
2019-01-24T01:31:41.829Z,18.1
2019-01-24T01:32:31.951Z,18.2
2019-01-24T01:33:22.534Z,18.2
2019-01-24T01:34:11.460Z,18.2
2019-01-24T01:35:02.101Z,18.1
2019-01-24T01:35:52.138Z,18.2
2019-01-24T01:36:42.498Z,18.2
2019-01-24T01:37:32.521Z,18.1
2019-01-24T01:38:23.691Z,18.1
2019-01-24T01:39:12.346Z,18
2019-01-24T01:40:01.897Z,18
2019-01-24T01:40:52.793Z,17.9
2019-01-24T01:41:42.310Z,17.9
2019-01-24T01:42:32.615Z,17.9
2019-01-24T01:43:22.651Z,17.8
2019-01-24T01:44:12.432Z,17.8
2019-01-24T01:45:02.635Z,17.8
2019-01-24T01:45:52.848Z,17.8
2019-01-24T01:46:42.905Z,17.8
2019-01-24T01:47:32.389Z,17.8
2019-01-24T01:48:23.007Z,17.8
2019-01-24T01:49:12.795Z,17.8
2019-01-24T01:50:03.472Z,17.8
2019-01-24T01:50:52.257Z,17.8
2019-01-24T01:51:42.960Z,17.8
2019-01-24T01:52:33.562Z,17.9
2019-01-24T01:53:23.627Z,17.9
2019-01-24T01:54:12.864Z,17.9
2019-01-24T01:55:03.360Z,17.9
2019-01-24T01:55:53.599Z,18
2019-01-24T01:56:43.615Z,18.1
2019-01-24T01:57:33.895Z,18.1
2019-01-24T01:58:24.237Z,18.1
2019-01-24T01:59:12.982Z,18.1
2019-01-24T02:00:03.608Z,18.1
2019-01-24T02:00:54.129Z,18.1
2019-01-24T02:01:44.226Z,18.1
2019-01-24T02:02:34.264Z,18.1
2019-01-24T02:03:23.772Z,18.1
2019-01-24T02:04:14.094Z,18.1
2019-01-24T02:05:04.252Z,18
2019-01-24T02:05:54.495Z,18
2019-01-24T02:06:44.350Z,18
2019-01-24T02:07:34.646Z,18
2019-01-24T02:08:23.826Z,17.9
2019-01-24T02:09:14.438Z,17.9
2019-01-24T02:10:04.033Z,17.9
2019-01-24T02:10:54.076Z,17.8
2019-01-24T02:11:44.951Z,17.8
2019-01-24T02:12:34.941Z,17.8
2019-01-24T02:13:25.286Z,17.8
2019-01-24T02:14:14.541Z,17.8
2019-01-24T02:15:05.527Z,17.8
2019-01-24T02:15:55.201Z,17.8
2019-01-24T02:16:44.986Z,17.8
2019-01-24T02:17:34.548Z,17.9
2019-01-24T02:18:25.342Z,17.9
2019-01-24T02:19:15.509Z,17.8
2019-01-24T02:20:04.822Z,17.9
2019-01-24T02:20:54.968Z,18
2019-01-24T02:21:45.573Z,18
2019-01-24T02:22:35.632Z,18.1
2019-01-24T02:23:25.424Z,18.1
2019-01-24T02:24:15.515Z,18.2
2019-01-24T02:25:06.126Z,18.2
2019-01-24T02:25:55.575Z,18.3
2019-01-24T02:26:45.459Z,18.3
2019-01-24T02:27:36.288Z,18.3
2019-01-24T02:28:26.333Z,18.3
2019-01-24T02:29:15.806Z,18.3
2019-01-24T02:30:06.496Z,18.3
2019-01-24T02:30:56.501Z,18.2
2019-01-24T02:31:45.735Z,18.2
2019-01-24T02:32:36.115Z,18.1
2019-01-24T02:33:25.717Z,18.1
2019-01-24T02:34:16.205Z,18
2019-01-24T02:35:06.863Z,17.9
2019-01-24T02:35:56.354Z,17.9
2019-01-24T02:36:46.662Z,17.9
2019-01-24T02:37:35.947Z,17.9
2019-01-24T02:38:26.527Z,17.8
2019-01-24T02:39:17.139Z,17.8
2019-01-24T02:40:07.169Z,17.8
2019-01-24T02:40:56.122Z,17.7
2019-01-24T02:41:47.274Z,17.7
2019-01-24T02:42:36.206Z,17.7
2019-01-24T02:43:25.776Z,17.7
2019-01-24T02:44:16.334Z,17.8
2019-01-24T02:45:07.414Z,17.8
2019-01-24T02:45:57.326Z,17.8
2019-01-24T02:46:46.556Z,17.9
2019-01-24T02:47:37.374Z,17.9
2019-01-24T02:48:27.776Z,17.9
2019-01-24T02:49:17.138Z,17.9
2019-01-24T02:50:07.501Z,17.9
2019-01-24T02:50:57.363Z,18
2019-01-24T02:51:47.401Z,18.1
2019-01-24T02:52:36.883Z,18.1
2019-01-24T02:53:27.491Z,18.1
2019-01-24T02:54:17.113Z,18.2
2019-01-24T02:55:08.038Z,18.1
2019-01-24T02:55:57.929Z,18.1
2019-01-24T02:56:47.723Z,18.1
2019-01-24T02:57:38.420Z,18.1
2019-01-24T02:58:28.411Z,18
2019-01-24T02:59:18.448Z,17.9
2019-01-24T03:00:08.330Z,17.9
2019-01-24T03:00:57.470Z,17.9
2019-01-24T03:01:47.795Z,17.9
2019-01-24T03:02:38.145Z,17.9
2019-01-24T03:03:28.518Z,17.9
2019-01-24T03:04:18.263Z,17.9
2019-01-24T03:05:08.375Z,17.8
2019-01-24T03:08:41.131Z,17.8
2019-01-24T03:09:31.132Z,17.8
2019-01-24T03:10:21.470Z,17.8
2019-01-24T03:11:11.307Z,17.8
2019-01-24T03:12:00.777Z,17.8
2019-01-24T03:12:51.622Z,17.8
2019-01-24T03:13:41.360Z,17.8
2019-01-24T03:14:31.777Z,17.8
2019-01-24T03:15:21.262Z,17.8
2019-01-24T03:16:11.577Z,17.9
2019-01-24T03:17:01.902Z,17.9
2019-01-24T03:17:52.296Z,17.9
2019-01-24T03:18:41.809Z,18
2019-01-24T03:19:32.162Z,18.1
2019-01-24T03:20:21.899Z,18.1
2019-01-24T03:21:12.480Z,18.3
2019-01-24T03:22:02.565Z,18.3
2019-01-24T03:22:52.317Z,18.3
2019-01-24T03:23:42.063Z,18.3
2019-01-24T03:24:32.698Z,18.3
2019-01-24T03:25:22.049Z,18.3
2019-01-24T03:26:12.538Z,18.2
2019-01-24T03:27:02.611Z,18.1
2019-01-24T03:27:52.663Z,18.1
2019-01-24T03:28:42.151Z,18
2019-01-24T03:29:32.183Z,17.9
2019-01-24T03:30:23.158Z,17.9
2019-01-24T03:31:12.764Z,17.9
2019-01-24T03:32:03.574Z,17.8
2019-01-24T03:32:53.114Z,17.8
2019-01-24T03:33:42.551Z,17.8
2019-01-24T03:34:33.139Z,17.8
2019-01-24T03:35:23.216Z,17.8
2019-01-24T03:36:13.230Z,17.8
2019-01-24T03:37:03.246Z,17.8
2019-01-24T03:37:52.281Z,17.8
2019-01-24T03:38:42.817Z,17.8
2019-01-24T03:39:33.447Z,17.8
2019-01-24T03:40:22.493Z,17.8
2019-01-24T03:41:13.330Z,17.9
2019-01-24T03:42:03.895Z,17.9
2019-01-24T03:42:53.465Z,18
2019-01-24T03:43:43.985Z,18
2019-01-24T03:44:33.276Z,18
2019-01-24T03:45:23.630Z,18
2019-01-24T03:46:14.165Z,18.1
2019-01-24T03:47:03.465Z,18.1
2019-01-24T03:47:54.039Z,18.1
2019-01-24T03:48:43.750Z,18.2
2019-01-24T03:49:33.065Z,18.2
2019-01-24T03:50:24.500Z,18.3
2019-01-24T03:51:14.332Z,18.3
2019-01-24T03:52:04.576Z,18.1
2019-01-24T03:52:54.395Z,18.1
2019-01-24T03:53:44.437Z,18.1
2019-01-24T03:54:34.811Z,18
2019-01-24T03:55:24.019Z,17.9
2019-01-24T03:56:14.552Z,17.9
2019-01-24T03:57:03.814Z,17.8
2019-01-24T03:57:54.527Z,17.8
2019-01-24T03:58:44.481Z,17.8
2019-01-24T03:59:34.587Z,17.7
2019-01-24T04:00:24.692Z,17.7
2019-01-24T04:01:14.779Z,17.6
2019-01-24T04:02:04.741Z,17.6
2019-01-24T04:02:54.510Z,17.5
2019-01-24T04:03:44.533Z,17.4
2019-01-24T04:04:34.384Z,17.4
2019-01-24T04:05:25.590Z,17.4
2019-01-24T04:06:14.979Z,17.4
2019-01-24T04:07:05.122Z,17.4
2019-01-24T04:07:55.204Z,17.4
2019-01-24T04:08:45.171Z,17.4
2019-01-24T04:09:35.045Z,17.4
2019-01-24T04:10:25.888Z,17.5
2019-01-24T04:11:14.768Z,17.6
2019-01-24T04:12:05.719Z,17.6
2019-01-24T04:12:55.732Z,17.6
2019-01-24T04:13:45.232Z,17.7
2019-01-24T04:14:35.257Z,17.8
2019-01-24T04:15:26.016Z,17.9
2019-01-24T04:16:16.293Z,17.9
2019-01-24T04:17:06.105Z,17.9
2019-01-24T04:17:55.611Z,18
2019-01-24T04:18:45.601Z,18.1
2019-01-24T04:19:35.733Z,18.1
2019-01-24T04:20:25.808Z,18.1
2019-01-24T04:21:16.290Z,18.1
2019-01-24T04:22:05.845Z,18.1
2019-01-24T04:22:56.471Z,18.1
2019-01-24T04:23:46.502Z,18.1
2019-01-24T04:24:36.510Z,18.1
2019-01-24T04:25:26.990Z,18.1
2019-01-24T04:26:15.532Z,18.1
2019-01-24T04:27:05.895Z,18
2019-01-24T04:27:56.665Z,17.9
2019-01-24T04:28:46.567Z,17.9
2019-01-24T04:29:36.150Z,17.8
2019-01-24T04:30:26.344Z,17.8
2019-01-24T04:31:16.977Z,17.7
2019-01-24T04:32:07.085Z,17.7
2019-01-24T04:32:56.685Z,17.6
2019-01-24T04:33:46.114Z,17.6
2019-01-24T04:34:36.992Z,17.6
2019-01-24T04:35:29.871Z,17.6
2019-01-24T04:36:18.954Z,17.5
2019-01-24T04:37:06.901Z,17.5
2019-01-24T04:37:56.961Z,17.5
2019-01-24T04:38:46.967Z,17.5
2019-01-24T04:39:37.563Z,17.6
2019-01-24T04:40:27.374Z,17.6
2019-01-24T04:41:17.164Z,17.6
2019-01-24T04:42:07.799Z,17.6
2019-01-24T04:42:57.579Z,17.7
2019-01-24T04:43:47.342Z,17.8
2019-01-24T04:44:37.618Z,17.8
2019-01-24T04:45:27.754Z,17.9
2019-01-24T04:46:17.451Z,17.9
2019-01-24T04:47:08.107Z,17.9
2019-01-24T04:47:57.181Z,17.9
2019-01-24T04:48:47.962Z,18
2019-01-24T04:49:37.268Z,18.1
2019-01-24T04:50:27.714Z,18.1
2019-01-24T04:51:17.644Z,18.1
2019-01-24T04:52:08.009Z,18.1
2019-01-24T04:52:57.782Z,18.1
2019-01-24T04:53:48.183Z,18.1
2019-01-24T04:54:37.853Z,18.1
2019-01-24T04:55:27.511Z,18.1
2019-01-24T04:56:18.083Z,18.1
2019-01-24T04:57:08.291Z,18
2019-01-24T04:57:59.855Z,18
2019-01-24T04:58:48.457Z,18
2019-01-24T04:59:38.345Z,17.9
2019-01-24T05:00:28.609Z,17.9
2019-01-24T05:01:17.325Z,17.8
2019-01-24T05:02:08.461Z,17.8
2019-01-24T05:02:58.470Z,17.7
2019-01-24T05:03:48.745Z,17.7
2019-01-24T05:04:37.965Z,17.6
2019-01-24T05:05:36.140Z,17.5
2019-01-24T05:06:18.855Z,17.5
2019-01-24T05:07:09.088Z,17.5
2019-01-24T05:07:58.813Z,17.6
2019-01-24T05:08:48.601Z,17.5
2019-01-24T05:09:38.515Z,17.4
2019-01-24T05:10:29.651Z,17.5
2019-01-24T05:11:19.000Z,17.6
2019-01-24T05:12:08.621Z,17.6
2019-01-24T05:12:59.952Z,17.6
2019-01-24T05:13:49.439Z,17.7
2019-01-24T05:14:39.691Z,17.7
2019-01-24T05:15:29.796Z,17.8
2019-01-24T05:16:20.125Z,17.8
2019-01-24T05:17:09.596Z,17.8
2019-01-24T05:18:00.016Z,17.8
2019-01-24T05:18:49.992Z,17.9
2019-01-24T05:19:40.062Z,17.9
2019-01-24T05:20:29.884Z,17.9
2019-01-24T05:21:20.436Z,18
2019-01-24T05:22:10.499Z,18.1
2019-01-24T05:23:00.351Z,18.1
2019-01-24T05:23:50.924Z,18.2
2019-01-24T05:24:40.928Z,18.1
2019-01-24T05:25:31.032Z,18.1
2019-01-24T05:26:20.563Z,18.1
2019-01-24T05:27:10.300Z,18.1
2019-01-24T05:28:01.065Z,18.1
2019-01-24T05:28:50.419Z,18
2019-01-24T05:29:40.189Z,17.9
2019-01-24T05:30:30.868Z,17.9
2019-01-24T05:31:20.882Z,17.8
2019-01-24T05:32:10.152Z,17.8
2019-01-24T05:33:02.602Z,17.7
2019-01-24T05:33:51.100Z,17.6
2019-01-24T05:34:41.664Z,17.6
2019-01-24T05:35:38.291Z,17.4
2019-01-24T05:36:21.004Z,17.4
2019-01-24T05:37:11.261Z,17.4
2019-01-24T05:38:01.907Z,17.3
2019-01-24T05:38:51.942Z,17.3
2019-01-24T05:39:41.985Z,17.4
2019-01-24T05:40:31.785Z,17.4
2019-01-24T05:41:21.841Z,17.4
2019-01-24T05:42:11.618Z,17.5
2019-01-24T05:43:01.481Z,17.5
2019-01-24T05:43:51.803Z,17.5
2019-01-24T05:44:42.385Z,17.6
2019-01-24T05:45:32.134Z,17.6
2019-01-24T05:46:21.604Z,17.7
2019-01-24T05:47:12.228Z,17.8
2019-01-24T05:48:02.310Z,17.8
2019-01-24T05:48:51.751Z,17.8
2019-01-24T05:49:42.096Z,17.9
2019-01-24T05:50:33.708Z,17.9
2019-01-24T05:51:22.493Z,17.9
2019-01-24T05:52:19.170Z,17.9
2019-01-24T05:53:02.108Z,17.8
2019-01-24T05:53:52.777Z,17.8
2019-01-24T05:54:42.171Z,17.8
2019-01-24T05:55:33.713Z,17.7
2019-01-24T05:56:22.535Z,17.6
2019-01-24T05:57:12.901Z,17.6
2019-01-24T05:58:02.690Z,17.6
2019-01-24T05:58:52.725Z,17.5
2019-01-24T05:59:42.775Z,17.4
2019-01-24T06:00:32.310Z,17.4
2019-01-24T06:01:22.885Z,17.4
2019-01-24T06:02:13.240Z,17.4
2019-01-24T06:03:03.267Z,17.6
2019-01-24T06:03:53.043Z,17.6
2019-01-24T06:06:40.860Z,17.8
2019-01-24T06:07:32.688Z,17.9
2019-01-24T06:08:21.025Z,18
2019-01-24T06:09:11.600Z,18
2019-01-24T06:10:01.360Z,18.1
2019-01-24T06:10:51.458Z,18.1
2019-01-24T06:11:40.932Z,18.1
2019-01-24T06:12:32.871Z,18.2
2019-01-24T06:13:21.359Z,18.2
2019-01-24T06:14:11.690Z,18.1
2019-01-24T06:15:01.504Z,18.1
2019-01-24T06:15:50.957Z,18.1
2019-01-24T06:16:41.561Z,18.1
2019-01-24T06:17:31.326Z,18.1
2019-01-24T06:18:21.670Z,18.1
2019-01-24T06:19:12.032Z,18
2019-01-24T06:20:01.566Z,18
2019-01-24T06:20:51.887Z,18
2019-01-24T06:21:42.220Z,18
2019-01-24T06:22:32.499Z,17.9
2019-01-24T06:23:21.382Z,17.9
2019-01-24T06:24:12.349Z,17.8
2019-01-24T06:25:02.382Z,17.8
2019-01-24T06:25:52.206Z,17.7
2019-01-24T06:26:42.302Z,17.6
2019-01-24T06:27:32.179Z,17.6
2019-01-24T06:28:21.898Z,17.5
2019-01-24T06:29:12.208Z,17.5
2019-01-24T06:30:02.669Z,17.4
2019-01-24T06:30:51.751Z,17.4
2019-01-24T06:31:42.076Z,17.4
2019-01-24T06:32:33.211Z,17.4
2019-01-24T06:33:22.980Z,17.5
2019-01-24T06:34:12.861Z,17.5
2019-01-24T06:35:02.635Z,17.6
2019-01-24T06:35:58.691Z,17.6
2019-01-24T06:36:43.211Z,17.6
2019-01-24T06:37:33.023Z,17.7
2019-01-24T06:38:23.276Z,17.8
2019-01-24T06:39:13.067Z,17.8
2019-01-24T06:40:03.435Z,17.9
2019-01-24T06:40:53.185Z,18
2019-01-24T06:41:42.447Z,18.1
2019-01-24T06:42:33.040Z,18.1
2019-01-24T06:43:23.087Z,18.1
2019-01-24T06:44:13.145Z,18.3
2019-01-24T06:45:03.547Z,18.3
2019-01-24T06:45:53.537Z,18.3
2019-01-24T06:46:43.665Z,18.2
2019-01-24T06:47:33.937Z,18.1
2019-01-24T06:48:23.177Z,18.1
2019-01-24T06:49:14.354Z,18.1
2019-01-24T06:50:03.694Z,18.1
2019-01-24T06:50:54.153Z,18
2019-01-24T06:51:43.942Z,17.9
2019-01-24T06:52:33.982Z,17.9
2019-01-24T06:53:22.999Z,17.8
2019-01-24T06:54:14.356Z,17.8
2019-01-24T06:55:04.852Z,17.8
2019-01-24T06:55:54.505Z,17.7
2019-01-24T06:56:43.319Z,17.6
2019-01-24T06:57:33.894Z,17.6
2019-01-24T06:58:24.192Z,17.6
2019-01-24T06:59:14.000Z,17.5
2019-01-24T07:00:03.567Z,17.5
2019-01-24T07:00:54.369Z,17.6
2019-01-24T07:01:44.349Z,17.6
2019-01-24T07:02:33.824Z,17.6
2019-01-24T07:03:24.604Z,17.6
2019-01-24T07:04:14.781Z,17.6
2019-01-24T07:06:40.175Z,17.6
2019-01-24T07:07:30.221Z,17.6
2019-01-24T07:08:20.841Z,17.8
2019-01-24T07:09:11.183Z,17.8
2019-01-24T07:10:01.304Z,17.9
2019-01-24T07:10:50.781Z,17.9
2019-01-24T07:11:40.865Z,18
2019-01-24T07:12:31.138Z,18
2019-01-24T07:13:20.640Z,18.1
2019-01-24T07:14:10.968Z,18.1
2019-01-24T07:15:00.836Z,18.2
2019-01-24T07:15:51.125Z,18.2
2019-01-24T07:16:41.208Z,18.2
2019-01-24T07:17:30.695Z,18.1
2019-01-24T07:18:21.813Z,18.1
2019-01-24T07:19:10.755Z,18.1
2019-01-24T07:20:01.458Z,18
2019-01-24T07:20:51.450Z,17.9
2019-01-24T07:21:41.188Z,17.9
2019-01-24T07:22:32.088Z,17.8
2019-01-24T07:23:21.582Z,17.8
2019-01-24T07:24:11.159Z,17.8
2019-01-24T07:25:02.067Z,17.6
2019-01-24T07:25:51.527Z,17.6
2019-01-24T07:26:41.885Z,17.5
2019-01-24T07:27:30.832Z,17.5
2019-01-24T07:28:21.970Z,17.4
2019-01-24T07:29:12.027Z,17.3
2019-01-24T07:30:01.807Z,17.3
2019-01-24T07:30:51.607Z,17.3
2019-01-24T07:31:42.764Z,17.3
2019-01-24T07:32:31.674Z,17.3
2019-01-24T07:33:22.042Z,17.3
2019-01-24T07:34:12.614Z,17.4
2019-01-24T07:35:02.125Z,17.4
2019-01-24T07:35:52.484Z,17.5
2019-01-24T07:36:43.069Z,17.6
2019-01-24T07:37:32.922Z,17.6
2019-01-24T07:38:22.621Z,17.7
2019-01-24T07:39:13.225Z,17.8
2019-01-24T07:40:02.872Z,17.9
2019-01-24T07:40:52.557Z,17.9
2019-01-24T07:41:42.589Z,17.9
2019-01-24T07:42:31.804Z,18
2019-01-24T07:43:24.637Z,18.1
2019-01-24T07:44:13.324Z,18.1
2019-01-24T07:45:03.538Z,18.1
2019-01-24T07:45:53.149Z,18.1
2019-01-24T07:46:42.654Z,18.1
2019-01-24T07:47:33.018Z,18.1
2019-01-24T07:48:22.763Z,18.1
2019-01-24T07:49:13.383Z,18.1
2019-01-24T07:50:03.032Z,18
2019-01-24T07:50:53.778Z,17.9
2019-01-24T07:51:43.249Z,17.9
2019-01-24T07:52:34.444Z,17.9
2019-01-24T07:53:23.126Z,17.8
2019-01-24T07:54:13.433Z,17.8
2019-01-24T07:55:04.348Z,17.7
2019-01-24T07:55:53.362Z,17.6
2019-01-24T07:56:43.148Z,17.6
2019-01-24T07:57:33.401Z,17.5
2019-01-24T07:58:23.839Z,17.4
2019-01-24T07:59:14.080Z,17.4
2019-01-24T08:00:04.488Z,17.4
2019-01-24T08:00:53.340Z,17.4
2019-01-24T08:01:44.218Z,17.4
2019-01-24T08:02:33.743Z,17.4
2019-01-24T08:03:23.543Z,17.4
2019-01-24T08:04:14.167Z,17.4
2019-01-24T08:05:05.024Z,17.6
2019-01-24T08:05:55.074Z,17.6
2019-01-24T08:06:44.326Z,17.6
2019-01-24T08:07:34.722Z,17.6
2019-01-24T08:08:23.887Z,17.6
2019-01-24T08:09:15.638Z,17.6
2019-01-24T08:10:04.970Z,17.7
2019-01-24T08:10:55.139Z,17.8
2019-01-24T08:11:44.086Z,17.8
2019-01-24T08:12:34.987Z,17.9
2019-01-24T08:13:24.484Z,17.9
2019-01-24T08:14:15.355Z,17.9
2019-01-24T08:15:04.942Z,18
2019-01-24T08:15:54.960Z,17.9
2019-01-24T08:16:45.864Z,17.9
2019-01-24T08:17:34.751Z,18
2019-01-24T08:18:25.385Z,18
2019-01-24T08:19:15.164Z,17.9
2019-01-24T08:20:05.254Z,17.9
2019-01-24T08:20:55.860Z,17.9
2019-01-24T08:21:46.151Z,17.9
2019-01-24T08:22:35.972Z,17.8
2019-01-24T08:23:26.107Z,17.8
2019-01-24T08:24:16.321Z,17.7
2019-01-24T08:25:05.931Z,17.7
2019-01-24T08:25:55.396Z,17.6
2019-01-24T08:26:45.779Z,17.5
2019-01-24T08:27:37.729Z,17.4
2019-01-24T08:28:26.396Z,17.4
2019-01-24T08:29:15.110Z,17.4
2019-01-24T08:30:06.211Z,17.4
2019-01-24T08:30:56.501Z,17.4
2019-01-24T08:31:46.278Z,17.4
2019-01-24T08:32:36.354Z,17.4
2019-01-24T08:33:25.151Z,17.4
2019-01-24T08:34:16.477Z,17.4
2019-01-24T08:35:06.253Z,17.5
2019-01-24T08:35:56.330Z,17.6
2019-01-24T08:36:46.350Z,17.6
2019-01-24T08:37:36.688Z,17.7
2019-01-24T08:38:26.238Z,17.8
2019-01-24T08:39:17.108Z,17.8
2019-01-24T08:40:07.070Z,17.9
2019-01-24T08:40:56.365Z,17.9
2019-01-24T08:41:47.263Z,17.9
2019-01-24T08:42:37.052Z,18.1
2019-01-24T08:43:26.924Z,18.1
2019-01-24T08:44:16.938Z,18.1
2019-01-24T08:45:06.963Z,18.1
2019-01-24T08:45:56.705Z,18.1
2019-01-24T08:46:47.060Z,18.1
2019-01-24T08:47:37.103Z,18.1
2019-01-24T08:48:27.158Z,18.1
2019-01-24T08:49:17.271Z,18.1
2019-01-24T08:50:07.312Z,18.1
2019-01-24T08:50:57.892Z,18
2019-01-24T08:51:48.267Z,18
2019-01-24T08:52:38.065Z,18
2019-01-24T08:53:27.577Z,17.9
2019-01-24T08:54:18.462Z,17.8
2019-01-24T08:55:07.199Z,17.8
2019-01-24T08:55:57.777Z,17.8
2019-01-24T08:56:47.334Z,17.7
2019-01-24T08:57:38.365Z,17.6
2019-01-24T08:58:28.460Z,17.6
2019-01-24T08:59:18.444Z,17.6
2019-01-24T09:00:08.441Z,17.6
2019-01-24T09:00:58.617Z,17.6
2019-01-24T09:01:48.644Z,17.6
2019-01-24T09:02:38.439Z,17.6
2019-01-24T09:03:28.771Z,17.6
2019-01-24T09:04:19.094Z,17.7
2019-01-24T09:05:08.859Z,17.7
2019-01-24T09:05:59.186Z,17.8
2019-01-24T09:06:48.534Z,17.8
2019-01-24T09:07:39.069Z,17.8
2019-01-24T09:08:29.099Z,17.9
2019-01-24T09:09:19.446Z,17.9
2019-01-24T09:10:09.626Z,17.9
2019-01-24T09:10:59.001Z,17.9
2019-01-24T09:11:49.328Z,18
2019-01-24T09:12:39.863Z,18.1
2019-01-24T09:13:29.167Z,18.1
2019-01-24T09:14:19.776Z,18.1
2019-01-24T09:15:08.926Z,18.1
2019-01-24T09:15:58.768Z,18.1
2019-01-24T09:16:49.096Z,18.1
2019-01-24T09:17:40.277Z,18.1
2019-01-24T09:18:29.815Z,18.1
2019-01-24T09:19:20.108Z,18
2019-01-24T09:20:09.442Z,17.9
2019-01-24T09:21:00.990Z,17.9
2019-01-24T09:21:50.035Z,17.8
2019-01-24T09:22:40.113Z,17.9
2019-01-24T09:23:30.443Z,17.8
2019-01-24T09:24:20.221Z,17.8
2019-01-24T09:25:10.828Z,17.8
2019-01-24T09:25:59.281Z,17.8
2019-01-24T09:26:49.280Z,17.7
2019-01-24T09:27:40.047Z,17.6
2019-01-24T09:28:29.886Z,17.6
2019-01-24T09:29:20.520Z,17.5
2019-01-24T09:30:09.850Z,17.5
2019-01-24T09:31:00.089Z,17.4
2019-01-24T09:31:50.172Z,17.4
2019-01-24T09:32:40.537Z,17.5
2019-01-24T09:33:30.882Z,17.5
2019-01-24T09:34:20.294Z,17.6
2019-01-24T09:35:11.299Z,17.6
2019-01-24T09:36:00.147Z,17.6
2019-01-24T09:36:51.087Z,17.8
2019-01-24T09:37:40.274Z,17.8
2019-01-24T09:38:31.419Z,17.8
2019-01-24T09:39:20.390Z,17.9
2019-01-24T09:40:10.994Z,17.9
2019-01-24T09:41:00.476Z,18.1
2019-01-24T09:41:51.139Z,18.1
2019-01-24T09:42:40.884Z,18.1
2019-01-24T09:43:30.722Z,18.1
2019-01-24T09:44:20.981Z,18.1
2019-01-24T09:45:11.059Z,18.1
2019-01-24T09:46:01.454Z,18.1
2019-01-24T09:46:51.179Z,18.1
2019-01-24T09:47:42.343Z,18.1
2019-01-24T09:48:31.364Z,18
2019-01-24T09:49:21.636Z,18
2019-01-24T09:50:11.946Z,18
2019-01-24T09:51:01.743Z,17.9
2019-01-24T09:51:51.294Z,17.9
2019-01-24T09:52:42.221Z,17.9
2019-01-24T09:53:32.443Z,17.8
2019-01-24T09:54:21.693Z,17.8
2019-01-24T09:55:13.213Z,17.7
2019-01-24T09:56:02.146Z,17.6
2019-01-24T09:56:52.413Z,17.6
2019-01-24T09:57:41.642Z,17.5
2019-01-24T09:58:32.808Z,17.4
2019-01-24T09:59:22.593Z,17.4
2019-01-24T10:00:12.651Z,17.4
2019-01-24T10:01:02.504Z,17.4
2019-01-24T10:01:52.487Z,17.4
2019-01-24T10:02:42.858Z,17.5
2019-01-24T10:03:32.885Z,17.5
2019-01-24T10:04:22.753Z,17.6
2019-01-24T10:05:12.710Z,17.6
2019-01-24T10:07:38.702Z,17.8
2019-01-24T10:08:30.194Z,17.9
2019-01-24T10:09:20.117Z,18
2019-01-24T10:10:10.037Z,18
2019-01-24T10:11:00.385Z,18.1
2019-01-24T10:11:48.810Z,18.1
2019-01-24T10:12:40.454Z,18.2
2019-01-24T10:13:30.744Z,18.2
2019-01-24T10:14:20.872Z,18.2
2019-01-24T10:15:10.262Z,18.2
2019-01-24T10:16:00.368Z,18.2
2019-01-24T10:16:51.264Z,18.2
2019-01-24T10:17:42.418Z,18.2
2019-01-24T10:18:31.119Z,18.1
2019-01-24T10:19:20.567Z,18.1
2019-01-24T10:20:11.442Z,18.1
2019-01-24T10:21:00.106Z,18.1
2019-01-24T10:21:51.364Z,18
2019-01-24T10:22:41.416Z,18
2019-01-24T10:23:30.614Z,17.9
2019-01-24T10:24:20.973Z,17.9
2019-01-24T10:25:10.852Z,17.8
2019-01-24T10:26:01.366Z,17.8
2019-01-24T10:26:51.757Z,17.7
2019-01-24T10:27:40.613Z,17.7
2019-01-24T10:28:32.281Z,17.7
2019-01-24T10:29:20.451Z,17.8
2019-01-24T10:30:11.096Z,17.8
2019-01-24T10:31:01.477Z,17.7
2019-01-24T10:31:52.858Z,17.8
2019-01-24T10:32:41.041Z,17.8
2019-01-24T10:33:31.583Z,17.8
2019-01-24T10:34:21.388Z,17.9
2019-01-24T10:35:11.508Z,17.9
2019-01-24T10:36:01.529Z,17.9
2019-01-24T10:36:51.520Z,18
2019-01-24T10:37:41.659Z,18.1
2019-01-24T10:38:32.210Z,18.1
2019-01-24T10:39:22.097Z,18.1
2019-01-24T10:40:11.398Z,18.2
2019-01-24T10:41:02.140Z,18.3
2019-01-24T10:41:52.522Z,18.3
2019-01-24T10:42:42.819Z,18.4
2019-01-24T10:43:32.298Z,18.4
2019-01-24T10:44:22.597Z,18.3
2019-01-24T10:45:12.390Z,18.3
2019-01-24T10:46:02.156Z,18.3
2019-01-24T10:46:54.038Z,18.3
2019-01-24T10:47:42.830Z,18.3
2019-01-24T10:48:32.661Z,18.3
2019-01-24T10:49:22.417Z,18.3
2019-01-24T10:50:12.467Z,18.2
2019-01-24T10:51:03.422Z,18.2
2019-01-24T10:51:52.577Z,18.1
2019-01-24T10:52:43.209Z,18.1
2019-01-24T10:53:33.535Z,18.1
2019-01-24T10:54:23.637Z,18
2019-01-24T10:55:20.302Z,17.9
2019-01-24T10:56:03.724Z,17.8
2019-01-24T10:56:52.650Z,17.8
2019-01-24T10:57:44.102Z,17.7
2019-01-24T10:58:33.943Z,17.7
2019-01-24T10:59:24.016Z,17.7
2019-01-24T11:00:13.756Z,17.7
2019-01-24T11:01:02.689Z,17.8
2019-01-24T11:01:53.545Z,17.8
2019-01-24T11:02:44.189Z,17.8
2019-01-24T11:03:33.396Z,17.9
2019-01-24T11:04:23.254Z,17.9
2019-01-24T11:05:13.792Z,17.9
2019-01-24T11:06:03.861Z,17.9
2019-01-24T11:06:58.529Z,18
2019-01-24T11:07:44.684Z,18
2019-01-24T11:08:34.208Z,18.1
2019-01-24T11:09:24.621Z,18.1
2019-01-24T11:10:15.373Z,18.2
2019-01-24T11:11:04.508Z,18.3
2019-01-24T11:11:55.546Z,18.3
2019-01-24T11:12:44.763Z,18.3
2019-01-24T11:13:34.458Z,18.3
2019-01-24T11:14:24.678Z,18.3
2019-01-24T11:15:13.903Z,18.3
2019-01-24T11:16:04.183Z,18.3
2019-01-24T11:16:54.593Z,18.3
2019-01-24T11:17:44.933Z,18.3
2019-01-24T11:18:34.417Z,18.3